sensor_id;sensor_type;location;lat;lon;timestamp;pressure;altitude;pressure_sealevel;temperature;humidity
46211;BME280;52144;48.040;-1.594;2023-05-20T00:00:01;101797.03;;;12.99;76.00
46211;BME280;52144;48.040;-1.594;2023-05-20T00:02:29;101788.88;;;13.02;75.41
46211;BME280;52144;48.040;-1.594;2023-05-20T00:04:57;101787.06;;;12.80;77.54
46211;BME280;52144;48.040;-1.594;2023-05-20T00:07:26;101785.16;;;13.30;74.38
46211;BME280;52144;48.040;-1.594;2023-05-20T00:09:54;101783.91;;;12.93;75.78
46211;BME280;52144;48.040;-1.594;2023-05-20T00:12:22;101784.34;;;13.04;76.15
46211;BME280;52144;48.040;-1.594;2023-05-20T00:14:49;101780.41;;;12.91;76.10
46211;BME280;52144;48.040;-1.594;2023-05-20T00:17:19;101783.44;;;13.05;76.23
46211;BME280;52144;48.040;-1.594;2023-05-20T00:19:47;101778.13;;;13.03;76.52
46211;BME280;52144;48.040;-1.594;2023-05-20T00:22:15;101771.47;;;12.68;77.06
46211;BME280;52144;48.040;-1.594;2023-05-20T00:24:44;101771.47;;;12.68;78.08
46211;BME280;52144;48.040;-1.594;2023-05-20T00:27:12;101769.53;;;12.95;76.14
46211;BME280;52144;48.040;-1.594;2023-05-20T00:29:40;101769.97;;;12.84;77.36
46211;BME280;52144;48.040;-1.594;2023-05-20T00:32:07;101769.31;;;12.54;78.17
46211;BME280;52144;48.040;-1.594;2023-05-20T00:34:36;101762.81;;;12.85;76.44
46211;BME280;52144;48.040;-1.594;2023-05-20T00:37:04;101767.28;;;13.07;75.05
46211;BME280;52144;48.040;-1.594;2023-05-20T00:39:32;101763.19;;;12.98;76.25
46211;BME280;52144;48.040;-1.594;2023-05-20T00:42:01;101761.06;;;13.06;75.01
46211;BME280;52144;48.040;-1.594;2023-05-20T00:44:29;101761.47;;;12.50;77.75
46211;BME280;52144;48.040;-1.594;2023-05-20T00:46:56;101771.03;;;12.55;77.86
46211;BME280;52144;48.040;-1.594;2023-05-20T00:49:24;101763.66;;;12.85;77.76
46211;BME280;52144;48.040;-1.594;2023-05-20T00:51:52;101778.91;;;12.60;78.28
46211;BME280;52144;48.040;-1.594;2023-05-20T00:54:20;101768.78;;;12.44;78.84
46211;BME280;52144;48.040;-1.594;2023-05-20T00:56:48;101761.84;;;12.64;78.33
46211;BME280;52144;48.040;-1.594;2023-05-20T00:59:18;101763.97;;;12.54;79.01
46211;BME280;52144;48.040;-1.594;2023-05-20T01:01:46;101759.50;;;12.55;79.12
46211;BME280;52144;48.040;-1.594;2023-05-20T01:04:14;101757.59;;;12.33;80.87
46211;BME280;52144;48.040;-1.594;2023-05-20T01:06:42;101746.53;;;12.44;80.18
46211;BME280;52144;48.040;-1.594;2023-05-20T01:09:12;101751.13;;;12.40;79.99
46211;BME280;52144;48.040;-1.594;2023-05-20T01:11:43;101735.56;;;12.52;79.44
46211;BME280;52144;48.040;-1.594;2023-05-20T01:14:17;101739.72;;;12.35;81.03
46211;BME280;52144;48.040;-1.594;2023-05-20T01:16:47;101736.41;;;12.29;80.99
46211;BME280;52144;48.040;-1.594;2023-05-20T01:19:21;101735.47;;;12.04;82.25
46211;BME280;52144;48.040;-1.594;2023-05-20T01:21:54;101732.44;;;12.39;80.69
46211;BME280;52144;48.040;-1.594;2023-05-20T01:24:24;101731.91;;;12.29;81.38
46211;BME280;52144;48.040;-1.594;2023-05-20T01:26:52;101726.06;;;12.19;82.74
46211;BME280;52144;48.040;-1.594;2023-05-20T01:29:23;101722.84;;;12.10;82.17
46211;BME280;52144;48.040;-1.594;2023-05-20T01:31:52;101722.78;;;12.60;78.73
46211;BME280;52144;48.040;-1.594;2023-05-20T01:34:22;101723.00;;;12.30;80.54
46211;BME280;52144;48.040;-1.594;2023-05-20T01:36:51;101719.22;;;12.11;82.77
46211;BME280;52144;48.040;-1.594;2023-05-20T01:39:20;101720.19;;;12.10;82.75
46211;BME280;52144;48.040;-1.594;2023-05-20T01:41:52;101718.28;;;12.60;80.37
46211;BME280;52144;48.040;-1.594;2023-05-20T01:44:21;101719.38;;;12.55;79.99
46211;BME280;52144;48.040;-1.594;2023-05-20T01:46:49;101721.75;;;12.39;81.07
46211;BME280;52144;48.040;-1.594;2023-05-20T01:49:16;101721.63;;;12.65;79.95
46211;BME280;52144;48.040;-1.594;2023-05-20T01:51:44;101730.19;;;12.75;79.08
46211;BME280;52144;48.040;-1.594;2023-05-20T01:54:12;101722.97;;;12.77;79.50
46211;BME280;52144;48.040;-1.594;2023-05-20T01:56:40;101723.25;;;12.70;79.02
46211;BME280;52144;48.040;-1.594;2023-05-20T01:59:09;101723.34;;;12.68;79.90
46211;BME280;52144;48.040;-1.594;2023-05-20T02:01:37;101724.25;;;12.43;81.08
46211;BME280;52144;48.040;-1.594;2023-05-20T02:04:05;101720.91;;;12.62;81.05
46211;BME280;52144;48.040;-1.594;2023-05-20T02:06:33;101720.09;;;12.60;81.36
46211;BME280;52144;48.040;-1.594;2023-05-20T02:09:01;101717.13;;;12.90;79.63
46211;BME280;52144;48.040;-1.594;2023-05-20T02:11:29;101713.00;;;12.59;80.27
46211;BME280;52144;48.040;-1.594;2023-05-20T02:13:57;101710.22;;;12.38;81.99
46211;BME280;52144;48.040;-1.594;2023-05-20T02:16:26;101714.22;;;12.50;80.62
46211;BME280;52144;48.040;-1.594;2023-05-20T02:18:54;101719.69;;;12.23;82.86
46211;BME280;52144;48.040;-1.594;2023-05-20T02:21:24;101720.72;;;12.19;83.00
46211;BME280;52144;48.040;-1.594;2023-05-20T02:23:52;101715.13;;;12.49;81.58
46211;BME280;52144;48.040;-1.594;2023-05-20T02:26:20;101715.63;;;12.60;81.21
46211;BME280;52144;48.040;-1.594;2023-05-20T02:28:48;101720.91;;;12.38;81.78
46211;BME280;52144;48.040;-1.594;2023-05-20T02:31:16;101712.88;;;12.38;82.39
46211;BME280;52144;48.040;-1.594;2023-05-20T02:33:45;101717.22;;;12.17;83.41
46211;BME280;52144;48.040;-1.594;2023-05-20T02:36:13;101711.19;;;12.59;81.40
46211;BME280;52144;48.040;-1.594;2023-05-20T02:38:43;101716.09;;;12.48;82.68
46211;BME280;52144;48.040;-1.594;2023-05-20T02:41:11;101711.59;;;12.49;82.15
46211;BME280;52144;48.040;-1.594;2023-05-20T02:43:39;101703.72;;;12.68;82.83
46211;BME280;52144;48.040;-1.594;2023-05-20T02:46:06;101707.97;;;12.73;81.06
46211;BME280;52144;48.040;-1.594;2023-05-20T02:48:34;101702.53;;;12.53;81.22
46211;BME280;52144;48.040;-1.594;2023-05-20T02:51:04;101710.41;;;12.79;81.34
46211;BME280;52144;48.040;-1.594;2023-05-20T02:53:32;101703.97;;;12.85;80.96
46211;BME280;52144;48.040;-1.594;2023-05-20T02:56:00;101703.06;;;12.62;81.84
46211;BME280;52144;48.040;-1.594;2023-05-20T02:58:28;101694.81;;;12.45;82.26
46211;BME280;52144;48.040;-1.594;2023-05-20T03:00:55;101689.19;;;12.75;82.56
46211;BME280;52144;48.040;-1.594;2023-05-20T03:03:25;101696.50;;;12.93;80.83
46211;BME280;52144;48.040;-1.594;2023-05-20T03:05:53;101685.56;;;12.30;84.03
46211;BME280;52144;48.040;-1.594;2023-05-20T03:08:22;101688.59;;;12.44;83.58
46211;BME280;52144;48.040;-1.594;2023-05-20T03:10:50;101684.72;;;12.30;86.18
46211;BME280;52144;48.040;-1.594;2023-05-20T03:13:18;101684.06;;;12.47;85.68
46211;BME280;52144;48.040;-1.594;2023-05-20T03:15:45;101682.75;;;12.33;84.70
46211;BME280;52144;48.040;-1.594;2023-05-20T03:18:13;101679.16;;;12.11;86.07
46211;BME280;52144;48.040;-1.594;2023-05-20T03:20:41;101674.06;;;12.52;84.80
46211;BME280;52144;48.040;-1.594;2023-05-20T03:23:09;101672.81;;;11.88;87.32
46211;BME280;52144;48.040;-1.594;2023-05-20T03:25:39;101675.38;;;11.93;87.76
46211;BME280;52144;48.040;-1.594;2023-05-20T03:28:07;101659.06;;;11.75;90.04
46211;BME280;52144;48.040;-1.594;2023-05-20T03:30:34;101672.28;;;12.05;88.16
46211;BME280;52144;48.040;-1.594;2023-05-20T03:33:03;101658.84;;;12.30;85.85
46211;BME280;52144;48.040;-1.594;2023-05-20T03:35:31;101671.31;;;12.06;88.02
46211;BME280;52144;48.040;-1.594;2023-05-20T03:37:59;101654.88;;;12.17;87.18
46211;BME280;52144;48.040;-1.594;2023-05-20T03:40:27;101662.72;;;11.98;87.89
46211;BME280;52144;48.040;-1.594;2023-05-20T03:42:56;101657.50;;;12.42;85.47
46211;BME280;52144;48.040;-1.594;2023-05-20T03:45:24;101657.69;;;12.14;88.12
46211;BME280;52144;48.040;-1.594;2023-05-20T03:47:52;101663.59;;;12.45;85.50
46211;BME280;52144;48.040;-1.594;2023-05-20T03:50:20;101657.44;;;12.43;86.01
46211;BME280;52144;48.040;-1.594;2023-05-20T03:52:47;101661.13;;;11.92;87.30
46211;BME280;52144;48.040;-1.594;2023-05-20T03:55:15;101665.75;;;11.89;88.66
46211;BME280;52144;48.040;-1.594;2023-05-20T03:57:45;101665.00;;;12.32;86.33
46211;BME280;52144;48.040;-1.594;2023-05-20T04:00:15;101654.66;;;12.47;84.43
46211;BME280;52144;48.040;-1.594;2023-05-20T04:02:44;101657.66;;;12.61;84.34
46211;BME280;52144;48.040;-1.594;2023-05-20T04:05:12;101671.22;;;12.56;83.44
46211;BME280;52144;48.040;-1.594;2023-05-20T04:07:40;101657.09;;;12.53;86.34
46211;BME280;52144;48.040;-1.594;2023-05-20T04:10:09;101658.22;;;12.23;86.66
46211;BME280;52144;48.040;-1.594;2023-05-20T04:12:37;101651.50;;;12.59;85.22
46211;BME280;52144;48.040;-1.594;2023-05-20T04:15:05;101654.53;;;12.72;83.71
46211;BME280;52144;48.040;-1.594;2023-05-20T04:17:35;101653.69;;;12.71;83.63
46211;BME280;52144;48.040;-1.594;2023-05-20T04:20:06;101654.75;;;12.43;85.45
46211;BME280;52144;48.040;-1.594;2023-05-20T04:22:35;101658.03;;;12.52;83.85
46211;BME280;52144;48.040;-1.594;2023-05-20T04:25:05;101649.81;;;12.56;83.88
46211;BME280;52144;48.040;-1.594;2023-05-20T04:27:33;101644.63;;;12.30;86.22
46211;BME280;52144;48.040;-1.594;2023-05-20T04:30:01;101651.75;;;12.29;86.69
46211;BME280;52144;48.040;-1.594;2023-05-20T04:32:29;101642.53;;;12.14;87.60
46211;BME280;52144;48.040;-1.594;2023-05-20T04:34:58;101645.38;;;12.10;87.85
46211;BME280;52144;48.040;-1.594;2023-05-20T04:37:27;101648.44;;;12.22;89.07
46211;BME280;52144;48.040;-1.594;2023-05-20T04:39:55;101654.94;;;11.92;90.04
46211;BME280;52144;48.040;-1.594;2023-05-20T04:42:23;101656.22;;;11.80;90.72
46211;BME280;52144;48.040;-1.594;2023-05-20T04:44:51;101649.09;;;12.06;90.13
46211;BME280;52144;48.040;-1.594;2023-05-20T04:47:19;101656.28;;;12.27;87.48
46211;BME280;52144;48.040;-1.594;2023-05-20T04:49:46;101648.97;;;12.09;89.39
46211;BME280;52144;48.040;-1.594;2023-05-20T04:52:17;101655.84;;;12.16;89.25
46211;BME280;52144;48.040;-1.594;2023-05-20T04:54:44;101646.78;;;12.20;89.49
46211;BME280;52144;48.040;-1.594;2023-05-20T04:57:12;101646.78;;;12.20;89.21
46211;BME280;52144;48.040;-1.594;2023-05-20T04:59:40;101644.22;;;11.93;90.16
46211;BME280;52144;48.040;-1.594;2023-05-20T05:02:08;101647.00;;;11.63;91.86
46211;BME280;52144;48.040;-1.594;2023-05-20T05:04:36;101652.69;;;11.54;94.22
46211;BME280;52144;48.040;-1.594;2023-05-20T05:07:04;101639.31;;;11.79;91.83
46211;BME280;52144;48.040;-1.594;2023-05-20T05:09:33;101643.31;;;11.68;94.32
46211;BME280;52144;48.040;-1.594;2023-05-20T05:12:01;101635.91;;;12.01;92.74
46211;BME280;52144;48.040;-1.594;2023-05-20T05:14:29;101643.78;;;12.04;90.33
46211;BME280;52144;48.040;-1.594;2023-05-20T05:16:56;101639.38;;;12.27;91.09
46211;BME280;52144;48.040;-1.594;2023-05-20T05:19:24;101640.38;;;12.24;91.22
46211;BME280;52144;48.040;-1.594;2023-05-20T05:21:52;101633.97;;;12.28;89.41
46211;BME280;52144;48.040;-1.594;2023-05-20T05:24:20;101637.16;;;11.65;96.54
46211;BME280;52144;48.040;-1.594;2023-05-20T05:26:52;101645.94;;;11.94;95.12
46211;BME280;52144;48.040;-1.594;2023-05-20T05:29:20;101642.19;;;12.23;93.37
46211;BME280;52144;48.040;-1.594;2023-05-20T05:31:48;101645.78;;;12.46;91.87
46211;BME280;52144;48.040;-1.594;2023-05-20T05:34:16;101641.94;;;12.75;90.53
46211;BME280;52144;48.040;-1.594;2023-05-20T05:36:43;101639.44;;;12.49;92.14
46211;BME280;52144;48.040;-1.594;2023-05-20T05:39:11;101641.53;;;12.40;91.10
46211;BME280;52144;48.040;-1.594;2023-05-20T05:41:39;101634.50;;;12.14;93.64
46211;BME280;52144;48.040;-1.594;2023-05-20T05:44:08;101640.44;;;12.68;93.01
46211;BME280;52144;48.040;-1.594;2023-05-20T05:46:36;101641.53;;;13.07;89.34
46211;BME280;52144;48.040;-1.594;2023-05-20T05:49:04;101638.53;;;13.14;88.37
46211;BME280;52144;48.040;-1.594;2023-05-20T05:51:31;101635.03;;;12.48;92.37
46211;BME280;52144;48.040;-1.594;2023-05-20T05:54:01;101635.22;;;13.09;88.97
46211;BME280;52144;48.040;-1.594;2023-05-20T05:56:29;101636.78;;;12.71;91.14
46211;BME280;52144;48.040;-1.594;2023-05-20T05:58:57;101638.22;;;13.22;90.93
46211;BME280;52144;48.040;-1.594;2023-05-20T06:01:26;101632.44;;;12.68;91.15
46211;BME280;52144;48.040;-1.594;2023-05-20T06:03:54;101630.94;;;13.25;90.21
46211;BME280;52144;48.040;-1.594;2023-05-20T06:06:22;101635.47;;;13.03;92.15
46211;BME280;52144;48.040;-1.594;2023-05-20T06:08:49;101633.81;;;12.78;93.06
46211;BME280;52144;48.040;-1.594;2023-05-20T06:11:17;101631.31;;;13.16;92.09
46211;BME280;52144;48.040;-1.594;2023-05-20T06:13:46;101633.03;;;12.75;94.47
46211;BME280;52144;48.040;-1.594;2023-05-20T06:16:14;101621.28;;;13.01;94.06
46211;BME280;52144;48.040;-1.594;2023-05-20T06:18:44;101622.69;;;13.10;95.20
46211;BME280;52144;48.040;-1.594;2023-05-20T06:21:12;101629.41;;;12.76;97.42
46211;BME280;52144;48.040;-1.594;2023-05-20T06:23:40;101622.28;;;13.41;92.51
46211;BME280;52144;48.040;-1.594;2023-05-20T06:26:08;101618.38;;;13.28;93.72
46211;BME280;52144;48.040;-1.594;2023-05-20T06:28:35;101611.66;;;12.97;94.84
46211;BME280;52144;48.040;-1.594;2023-05-20T06:31:03;101618.19;;;13.10;94.45
46211;BME280;52144;48.040;-1.594;2023-05-20T06:33:31;101611.56;;;13.41;92.98
46211;BME280;52144;48.040;-1.594;2023-05-20T06:36:00;101605.22;;;13.01;95.57
46211;BME280;52144;48.040;-1.594;2023-05-20T06:38:28;101605.94;;;13.47;94.17
46211;BME280;52144;48.040;-1.594;2023-05-20T06:40:56;101615.56;;;14.30;90.48
46211;BME280;52144;48.040;-1.594;2023-05-20T06:43:24;101610.72;;;14.38;89.83
46211;BME280;52144;48.040;-1.594;2023-05-20T06:45:52;101609.06;;;14.36;90.41
46211;BME280;52144;48.040;-1.594;2023-05-20T06:48:20;101613.97;;;14.26;89.86
46211;BME280;52144;48.040;-1.594;2023-05-20T06:50:47;101614.47;;;13.96;90.90
46211;BME280;52144;48.040;-1.594;2023-05-20T06:53:17;101606.66;;;14.11;90.39
46211;BME280;52144;48.040;-1.594;2023-05-20T06:55:44;101608.56;;;14.09;92.21
46211;BME280;52144;48.040;-1.594;2023-05-20T06:58:12;101610.16;;;14.70;87.34
46211;BME280;52144;48.040;-1.594;2023-05-20T07:00:40;101609.34;;;14.11;90.88
46211;BME280;52144;48.040;-1.594;2023-05-20T07:03:08;101608.91;;;14.01;92.20
46211;BME280;52144;48.040;-1.594;2023-05-20T07:05:37;101605.94;;;13.88;93.14
46211;BME280;52144;48.040;-1.594;2023-05-20T07:08:05;101609.34;;;13.71;93.34
46211;BME280;52144;48.040;-1.594;2023-05-20T07:10:34;101607.03;;;14.03;92.13
46211;BME280;52144;48.040;-1.594;2023-05-20T07:13:02;101608.16;;;14.16;92.09
46211;BME280;52144;48.040;-1.594;2023-05-20T07:15:30;101611.81;;;14.15;91.58
46211;BME280;52144;48.040;-1.594;2023-05-20T07:17:58;101600.13;;;14.54;88.68
46211;BME280;52144;48.040;-1.594;2023-05-20T07:20:26;101602.53;;;14.22;91.32
46211;BME280;52144;48.040;-1.594;2023-05-20T07:22:54;101603.63;;;14.56;89.71
46211;BME280;52144;48.040;-1.594;2023-05-20T07:25:22;101612.66;;;14.16;90.79
46211;BME280;52144;48.040;-1.594;2023-05-20T07:27:51;101602.31;;;14.65;89.29
46211;BME280;52144;48.040;-1.594;2023-05-20T07:30:19;101600.00;;;14.94;87.38
46211;BME280;52144;48.040;-1.594;2023-05-20T07:32:46;101598.28;;;14.93;87.24
46211;BME280;52144;48.040;-1.594;2023-05-20T07:35:14;101607.97;;;14.59;88.45
46211;BME280;52144;48.040;-1.594;2023-05-20T07:37:42;101604.78;;;14.32;92.04
46211;BME280;52144;48.040;-1.594;2023-05-20T07:40:11;101608.41;;;14.50;89.66
46211;BME280;52144;48.040;-1.594;2023-05-20T07:42:39;101602.00;;;14.71;90.15
46211;BME280;52144;48.040;-1.594;2023-05-20T07:45:09;101600.78;;;14.78;88.50
46211;BME280;52144;48.040;-1.594;2023-05-20T07:47:37;101590.84;;;14.80;87.53
46211;BME280;52144;48.040;-1.594;2023-05-20T07:50:06;101599.19;;;14.74;89.82
46211;BME280;52144;48.040;-1.594;2023-05-20T07:52:33;101587.16;;;15.18;88.55
46211;BME280;52144;48.040;-1.594;2023-05-20T07:55:21;101592.66;;;15.32;87.24
46211;BME280;52144;48.040;-1.594;2023-05-20T07:57:49;101581.66;;;15.54;85.38
46211;BME280;52144;48.040;-1.594;2023-05-20T08:00:18;101577.09;;;15.04;88.17
46211;BME280;52144;48.040;-1.594;2023-05-20T08:02:46;101579.88;;;15.37;86.53
46211;BME280;52144;48.040;-1.594;2023-05-20T08:05:14;101571.44;;;15.45;86.65
46211;BME280;52144;48.040;-1.594;2023-05-20T08:07:42;101564.13;;;15.82;83.44
46211;BME280;52144;48.040;-1.594;2023-05-20T08:10:10;101573.19;;;16.44;84.86
46211;BME280;52144;48.040;-1.594;2023-05-20T08:12:38;101569.09;;;16.69;82.91
46211;BME280;52144;48.040;-1.594;2023-05-20T08:15:07;101567.34;;;16.52;81.76
46211;BME280;52144;48.040;-1.594;2023-05-20T08:17:36;101568.72;;;17.36;79.84
46211;BME280;52144;48.040;-1.594;2023-05-20T08:20:05;101572.78;;;16.98;79.79
46211;BME280;52144;48.040;-1.594;2023-05-20T08:22:35;101563.31;;;17.21;76.93
46211;BME280;52144;48.040;-1.594;2023-05-20T08:25:06;101559.66;;;17.67;75.16
46211;BME280;52144;48.040;-1.594;2023-05-20T08:27:34;101558.94;;;17.35;78.51
46211;BME280;52144;48.040;-1.594;2023-05-20T08:30:03;101551.41;;;17.40;76.46
46211;BME280;52144;48.040;-1.594;2023-05-20T08:32:33;101564.56;;;18.03;75.98
46211;BME280;52144;48.040;-1.594;2023-05-20T08:35:03;101556.84;;;18.12;75.17
46211;BME280;52144;48.040;-1.594;2023-05-20T08:37:32;101555.03;;;17.55;75.98
46211;BME280;52144;48.040;-1.594;2023-05-20T08:39:59;101557.41;;;17.59;78.17
46211;BME280;52144;48.040;-1.594;2023-05-20T08:42:27;101564.56;;;18.18;74.90
46211;BME280;52144;48.040;-1.594;2023-05-20T08:44:56;101556.88;;;18.39;72.33
46211;BME280;52144;48.040;-1.594;2023-05-20T08:47:25;101573.31;;;17.93;73.57
46211;BME280;52144;48.040;-1.594;2023-05-20T08:49:53;101561.78;;;17.91;75.51
46211;BME280;52144;48.040;-1.594;2023-05-20T08:52:23;101556.75;;;17.70;76.73
46211;BME280;52144;48.040;-1.594;2023-05-20T08:54:52;101560.13;;;17.74;75.44
46211;BME280;52144;48.040;-1.594;2023-05-20T08:57:20;101550.66;;;17.52;74.10
46211;BME280;52144;48.040;-1.594;2023-05-20T08:59:48;101555.78;;;17.71;76.74
46211;BME280;52144;48.040;-1.594;2023-05-20T09:02:16;101552.88;;;17.74;74.79
46211;BME280;52144;48.040;-1.594;2023-05-20T09:04:44;101555.75;;;17.28;75.20
46211;BME280;52144;48.040;-1.594;2023-05-20T09:07:12;101549.50;;;17.56;75.75
46211;BME280;52144;48.040;-1.594;2023-05-20T09:09:41;101553.84;;;18.16;73.83
46211;BME280;52144;48.040;-1.594;2023-05-20T09:12:09;101553.59;;;18.34;73.92
46211;BME280;52144;48.040;-1.594;2023-05-20T09:14:37;101553.63;;;18.19;73.42
46211;BME280;52144;48.040;-1.594;2023-05-20T09:17:05;101550.31;;;18.01;73.81
46211;BME280;52144;48.040;-1.594;2023-05-20T09:19:33;101544.19;;;19.08;71.81
46211;BME280;52144;48.040;-1.594;2023-05-20T09:22:02;101542.91;;;19.27;68.77
46211;BME280;52144;48.040;-1.594;2023-05-20T09:24:31;101542.72;;;19.30;69.49
46211;BME280;52144;48.040;-1.594;2023-05-20T09:27:00;101539.63;;;18.41;72.18
46211;BME280;52144;48.040;-1.594;2023-05-20T09:29:32;101540.38;;;18.98;71.21
46211;BME280;52144;48.040;-1.594;2023-05-20T09:32:01;101541.16;;;18.45;72.81
46211;BME280;52144;48.040;-1.594;2023-05-20T09:34:29;101535.75;;;19.00;70.63
46211;BME280;52144;48.040;-1.594;2023-05-20T09:36:58;101536.06;;;18.95;71.58
46211;BME280;52144;48.040;-1.594;2023-05-20T09:39:29;101526.56;;;19.02;70.04
46211;BME280;52144;48.040;-1.594;2023-05-20T09:42:05;101537.94;;;18.53;70.65
46211;BME280;52144;48.040;-1.594;2023-05-20T09:44:34;101550.13;;;18.73;71.47
46211;BME280;52144;48.040;-1.594;2023-05-20T09:47:02;101538.56;;;18.71;69.51
46211;BME280;52144;48.040;-1.594;2023-05-20T09:49:34;101526.38;;;19.06;69.12
46211;BME280;52144;48.040;-1.594;2023-05-20T09:52:03;101527.13;;;19.59;69.38
46211;BME280;52144;48.040;-1.594;2023-05-20T09:54:31;101531.38;;;19.76;67.82
46211;BME280;52144;48.040;-1.594;2023-05-20T09:57:02;101527.78;;;19.62;67.14
46211;BME280;52144;48.040;-1.594;2023-05-20T09:59:32;101521.09;;;19.81;69.50
46211;BME280;52144;48.040;-1.594;2023-05-20T10:02:02;101514.72;;;20.19;68.93
46211;BME280;52144;48.040;-1.594;2023-05-20T10:04:30;101510.97;;;20.33;62.67
46211;BME280;52144;48.040;-1.594;2023-05-20T10:07:21;101512.19;;;19.92;66.38
46211;BME280;52144;48.040;-1.594;2023-05-20T10:10:16;101512.28;;;20.27;63.40
46211;BME280;52144;48.040;-1.594;2023-05-20T10:12:54;101510.97;;;20.33;62.88
46211;BME280;52144;48.040;-1.594;2023-05-20T10:15:32;101505.88;;;20.65;60.91
46211;BME280;52144;48.040;-1.594;2023-05-20T10:18:11;101508.16;;;20.34;62.34
46211;BME280;52144;48.040;-1.594;2023-05-20T10:20:45;101496.53;;;20.45;60.73
46211;BME280;52144;48.040;-1.594;2023-05-20T10:23:21;101499.53;;;19.92;63.84
46211;BME280;52144;48.040;-1.594;2023-05-20T10:25:50;101500.44;;;20.17;63.67
46211;BME280;52144;48.040;-1.594;2023-05-20T10:28:27;101501.59;;;20.26;63.77
46211;BME280;52144;48.040;-1.594;2023-05-20T10:30:57;101497.56;;;19.94;61.27
46211;BME280;52144;48.040;-1.594;2023-05-20T10:33:25;101497.88;;;20.39;61.34
46211;BME280;52144;48.040;-1.594;2023-05-20T10:35:57;101491.13;;;20.69;61.23
46211;BME280;52144;48.040;-1.594;2023-05-20T10:38:25;101491.47;;;20.89;58.49
46211;BME280;52144;48.040;-1.594;2023-05-20T10:40:53;101491.72;;;20.37;59.28
46211;BME280;52144;48.040;-1.594;2023-05-20T10:43:27;101483.63;;;20.24;60.99
46211;BME280;52144;48.040;-1.594;2023-05-20T10:45:55;101491.41;;;20.77;61.69
46211;BME280;52144;48.040;-1.594;2023-05-20T10:48:25;101491.13;;;20.45;59.80
46211;BME280;52144;48.040;-1.594;2023-05-20T10:50:54;101487.63;;;20.32;61.05
46211;BME280;52144;48.040;-1.594;2023-05-20T10:53:24;101492.25;;;20.67;61.57
46211;BME280;52144;48.040;-1.594;2023-05-20T10:56:00;101485.31;;;20.98;60.48
46211;BME280;52144;48.040;-1.594;2023-05-20T10:58:36;101477.81;;;21.01;57.27
46211;BME280;52144;48.040;-1.594;2023-05-20T11:01:04;101473.09;;;20.57;59.67
46211;BME280;52144;48.040;-1.594;2023-05-20T11:03:33;101465.06;;;20.79;59.19
46211;BME280;52144;48.040;-1.594;2023-05-20T11:06:10;101477.97;;;21.11;59.89
46211;BME280;52144;48.040;-1.594;2023-05-20T11:08:38;101463.09;;;21.73;56.63
46211;BME280;52144;48.040;-1.594;2023-05-20T11:11:06;101474.53;;;22.11;57.04
46211;BME280;52144;48.040;-1.594;2023-05-20T11:13:35;101465.97;;;21.72;56.29
46211;BME280;52144;48.040;-1.594;2023-05-20T11:16:03;101465.38;;;21.10;55.95
46211;BME280;52144;48.040;-1.594;2023-05-20T11:18:32;101475.53;;;20.73;57.88
46211;BME280;52144;48.040;-1.594;2023-05-20T11:21:00;101462.50;;;20.30;57.93
46211;BME280;52144;48.040;-1.594;2023-05-20T11:23:29;101462.16;;;20.94;58.03
46211;BME280;52144;48.040;-1.594;2023-05-20T11:25:57;101470.22;;;20.71;58.61
46211;BME280;52144;48.040;-1.594;2023-05-20T11:28:25;101463.03;;;21.06;57.24
46211;BME280;52144;48.040;-1.594;2023-05-20T11:30:54;101470.56;;;21.24;57.63
46211;BME280;52144;48.040;-1.594;2023-05-20T11:33:24;101462.00;;;21.64;59.18
46211;BME280;52144;48.040;-1.594;2023-05-20T11:35:53;101447.03;;;22.48;54.94
46211;BME280;52144;48.040;-1.594;2023-05-20T11:38:21;101451.81;;;22.55;55.05
46211;BME280;52144;48.040;-1.594;2023-05-20T11:40:52;101453.16;;;22.06;55.29
46211;BME280;52144;48.040;-1.594;2023-05-20T11:43:21;101445.22;;;21.71;55.36
46211;BME280;52144;48.040;-1.594;2023-05-20T11:45:54;101448.81;;;21.49;54.29
46211;BME280;52144;48.040;-1.594;2023-05-20T11:48:23;101445.19;;;21.37;54.12
46211;BME280;52144;48.040;-1.594;2023-05-20T11:50:52;101442.47;;;22.04;54.03
46211;BME280;52144;48.040;-1.594;2023-05-20T11:53:21;101440.63;;;21.94;55.22
46211;BME280;52144;48.040;-1.594;2023-05-20T11:55:51;101436.94;;;21.38;55.88
46211;BME280;52144;48.040;-1.594;2023-05-20T11:58:21;101436.59;;;21.32;55.75
46211;BME280;52144;48.040;-1.594;2023-05-20T12:00:50;101424.88;;;21.20;55.14
46211;BME280;52144;48.040;-1.594;2023-05-20T12:03:32;101431.19;;;21.43;54.93
46211;BME280;52144;48.040;-1.594;2023-05-20T12:06:00;101420.88;;;21.92;53.46
46211;BME280;52144;48.040;-1.594;2023-05-20T12:08:29;101419.16;;;22.46;53.08
46211;BME280;52144;48.040;-1.594;2023-05-20T12:10:56;101409.47;;;21.66;55.35
46211;BME280;52144;48.040;-1.594;2023-05-20T12:13:24;101419.66;;;20.94;55.98
46211;BME280;52144;48.040;-1.594;2023-05-20T12:15:52;101418.00;;;21.72;55.55
46211;BME280;52144;48.040;-1.594;2023-05-20T12:18:21;101419.22;;;22.23;54.86
46211;BME280;52144;48.040;-1.594;2023-05-20T12:20:50;101413.41;;;22.60;53.23
46211;BME280;52144;48.040;-1.594;2023-05-20T12:23:18;101407.97;;;23.33;52.87
46211;BME280;52144;48.040;-1.594;2023-05-20T12:25:46;101408.97;;;23.32;52.29
46211;BME280;52144;48.040;-1.594;2023-05-20T12:28:15;101400.25;;;22.65;51.13
46211;BME280;52144;48.040;-1.594;2023-05-20T12:30:43;101401.75;;;21.50;52.62
46211;BME280;52144;48.040;-1.594;2023-05-20T12:33:11;101415.91;;;21.64;54.48
46211;BME280;52144;48.040;-1.594;2023-05-20T12:35:40;101406.41;;;22.14;52.08
46211;BME280;52144;48.040;-1.594;2023-05-20T12:38:09;101415.22;;;23.53;49.90
46211;BME280;52144;48.040;-1.594;2023-05-20T12:40:37;101412.91;;;22.55;50.32
46211;BME280;52144;48.040;-1.594;2023-05-20T12:43:05;101404.31;;;22.50;52.32
46211;BME280;52144;48.040;-1.594;2023-05-20T12:45:33;101403.03;;;22.21;52.94
46211;BME280;52144;48.040;-1.594;2023-05-20T12:48:01;101407.53;;;21.68;52.33